createdAt,value
2023-05-13T00:00:46.689Z,10.84
2023-05-13T00:05:48.107Z,10.83
2023-05-13T00:10:49.603Z,10.83
2023-05-13T00:15:51.716Z,10.81
2023-05-13T00:20:53.378Z,10.8
2023-05-13T00:25:55.019Z,10.79
2023-05-13T00:30:56.499Z,10.79
2023-05-13T00:35:57.891Z,10.79
2023-05-13T00:40:59.258Z,10.79
2023-05-13T00:46:00.694Z,10.78
2023-05-13T00:51:02.207Z,10.75
2023-05-13T00:56:03.850Z,10.77
2023-05-13T01:01:05.980Z,10.75
2023-05-13T01:06:07.705Z,10.67
2023-05-13T01:11:09.739Z,10.65
2023-05-13T01:16:11.939Z,10.63
2023-05-13T01:21:13.409Z,10.64
2023-05-13T01:26:14.868Z,10.64
2023-05-13T01:31:16.572Z,10.59
2023-05-13T01:36:17.863Z,10.59
2023-05-13T01:41:19.094Z,10.58
2023-05-13T01:46:21.148Z,10.57
2023-05-13T01:51:22.414Z,10.57
2023-05-13T01:56:23.652Z,10.58
2023-05-13T02:01:25.459Z,10.59
2023-05-13T02:06:26.782Z,10.59
2023-05-13T02:11:28.557Z,10.6
2023-05-13T02:16:29.844Z,10.59
2023-05-13T02:21:31.290Z,10.57
2023-05-13T02:26:32.891Z,10.49
2023-05-13T02:31:34.285Z,10.48
2023-05-13T02:36:35.802Z,10.48
2023-05-13T02:41:37.583Z,10.48
2023-05-13T02:46:38.987Z,10.51
2023-05-13T02:51:40.400Z,10.52
2023-05-13T02:56:51.052Z,10.52
2023-05-13T03:01:44.071Z,10.52
2023-05-13T03:06:45.391Z,10.52
2023-05-13T03:11:47.111Z,10.52
2023-05-13T03:16:48.968Z,10.51
2023-05-13T03:21:50.406Z,10.5
2023-05-13T03:26:52.427Z,10.51
2023-05-13T03:31:53.670Z,10.49
2023-05-13T03:36:55.302Z,10.5
2023-05-13T03:41:56.715Z,10.5
2023-05-13T03:46:57.929Z,10.51
2023-05-13T03:52:00.112Z,10.5
2023-05-13T03:57:01.562Z,10.51
2023-05-13T04:02:02.976Z,10.51
2023-05-13T04:07:05.071Z,10.52
2023-05-13T04:12:06.364Z,10.51
2023-05-13T04:17:08.135Z,10.5
2023-05-13T04:22:09.475Z,10.44
2023-05-13T04:27:10.837Z,10.42
2023-05-13T04:32:12.586Z,10.43
2023-05-13T04:37:13.774Z,10.42
2023-05-13T04:42:15.788Z,10.39
2023-05-13T04:47:17.846Z,10.4
2023-05-13T04:52:19.418Z,10.36
2023-05-13T04:57:20.953Z,10.37
2023-05-13T05:02:23.152Z,10.36
2023-05-13T05:07:24.529Z,10.39
2023-05-13T05:12:26.524Z,10.38
2023-05-13T05:17:28.536Z,10.39
2023-05-13T05:22:29.957Z,10.42
2023-05-13T05:27:31.907Z,10.39
2023-05-13T05:32:33.807Z,10.41
2023-05-13T05:37:35.725Z,10.43
2023-05-13T05:42:37.306Z,10.43
2023-05-13T05:47:39.736Z,10.44
2023-05-13T05:52:41.376Z,10.45
2023-05-13T05:57:43.433Z,10.48
2023-05-13T06:02:45.115Z,10.48
2023-05-13T06:07:46.737Z,10.52
2023-05-13T06:12:48.091Z,10.56
2023-05-13T06:17:49.292Z,10.51
2023-05-13T06:22:50.986Z,10.56
2023-05-13T06:27:52.983Z,10.6
2023-05-13T06:33:01.408Z,10.63
2023-05-13T06:37:56.243Z,10.68
2023-05-13T06:42:58.170Z,10.72
2023-05-13T06:47:59.400Z,10.78
2023-05-13T06:53:01.200Z,10.8
2023-05-13T06:58:03.232Z,10.8
2023-05-13T07:03:04.482Z,10.84
2023-05-13T07:08:06.352Z,10.85
2023-05-13T07:13:07.967Z,10.89
2023-05-13T07:18:09.508Z,10.92
2023-05-13T07:23:11.520Z,10.99
2023-05-13T07:28:12.772Z,11.04
2023-05-13T07:33:14.334Z,11.08
2023-05-13T07:38:15.664Z,11.1
2023-05-13T07:58:22.889Z,11.25
2023-05-13T08:03:24.796Z,11.28
2023-05-13T08:13:28.055Z,11.36
2023-05-13T08:38:37.162Z,11.58
2023-05-13T09:08:47.208Z,11.95
2023-05-13T09:13:49.094Z,12.02
2023-05-13T09:18:50.957Z,12.12
2023-05-13T09:23:52.855Z,12.2
2023-05-13T09:28:54.999Z,12.27
2023-05-13T09:33:56.195Z,12.25
2023-05-13T09:38:58.363Z,12.29
2023-05-13T09:44:00.494Z,12.36
2023-05-13T09:49:02.266Z,12.48
2023-05-13T09:54:03.905Z,12.51
2023-05-13T09:59:05.558Z,12.65
2023-05-13T10:04:07.632Z,12.75
2023-05-13T10:09:08.999Z,12.84
2023-05-13T10:14:11.002Z,12.9
2023-05-13T10:19:12.841Z,13.01
2023-05-13T10:24:14.396Z,13.07
2023-05-13T10:29:15.982Z,13.16
2023-05-13T10:34:17.898Z,13.18
2023-05-13T10:39:19.663Z,13.21
2023-05-13T10:44:21.654Z,13.28
2023-05-13T10:49:23.469Z,13.36
2023-05-13T10:54:25.156Z,13.42
2023-05-13T10:59:27.640Z,13.5
2023-05-13T11:04:28.428Z,13.59
2023-05-13T11:09:29.670Z,13.68
2023-05-13T11:14:31.505Z,13.78
2023-05-13T11:19:33.253Z,13.9
2023-05-13T11:24:34.486Z,14
2023-05-13T11:29:36.371Z,14.11
2023-05-13T11:34:38.001Z,14.21
2023-05-13T11:39:40.027Z,14.31
2023-05-13T11:44:41.284Z,14.41
2023-05-13T11:49:42.860Z,14.49
2023-05-13T11:54:44.162Z,14.51
2023-05-13T11:59:48.347Z,14.58
2023-05-13T12:04:47.750Z,14.64
2023-05-13T12:09:49.493Z,14.79
2023-05-13T12:14:51.593Z,15.15
2023-05-13T12:19:52.845Z,15.78
2023-05-13T12:24:54.840Z,16.42
2023-05-13T12:29:56.971Z,16.61
2023-05-13T12:34:58.569Z,16.85
2023-05-13T12:40:00.043Z,16.95
2023-05-13T12:45:01.290Z,16.95
2023-05-13T12:50:03.396Z,17.1
2023-05-13T12:55:05.325Z,18.42
2023-05-13T13:00:06.780Z,19.76
2023-05-13T13:05:08.940Z,19.62
2023-05-13T13:10:10.957Z,19.7
2023-05-13T13:15:13.134Z,19.81
2023-05-13T13:20:14.885Z,19.84
2023-05-13T13:25:16.099Z,19.9
2023-05-13T13:30:18.173Z,19.89
2023-05-13T13:35:19.583Z,20.17
2023-05-13T13:40:20.992Z,20.25
2023-05-13T13:45:22.419Z,20.62
2023-05-13T13:50:30.021Z,21.15
2023-05-13T13:55:31.759Z,23.24
2023-05-13T14:00:33.486Z,24.82
2023-05-13T14:05:34.886Z,25.93
2023-05-13T14:10:36.677Z,27.13
2023-05-13T14:15:38.136Z,25.78
2023-05-13T14:20:48.745Z,25.64
2023-05-13T14:25:41.873Z,25
2023-05-13T14:30:43.295Z,24.07
2023-05-13T14:35:44.864Z,22.98
2023-05-13T14:40:46.117Z,22.29
2023-05-13T14:45:47.362Z,21.43
2023-05-13T14:50:48.686Z,20.78
2023-05-13T14:55:51.473Z,20.23
2023-05-13T15:00:51.895Z,20.54
2023-05-13T15:05:53.833Z,21.17
2023-05-13T15:10:55.715Z,20.5
2023-05-13T15:15:57.718Z,20.25
2023-05-13T15:20:59.247Z,19.99
2023-05-13T15:26:00.856Z,19.7
2023-05-13T15:31:02.348Z,19.23
2023-05-13T15:36:04.075Z,18.87
2023-05-13T15:41:05.689Z,18.53
2023-05-13T15:46:09.206Z,18.18
2023-05-13T15:51:08.822Z,17.93
2023-05-13T15:56:10.725Z,17.65
2023-05-13T16:01:12.616Z,17.45
2023-05-13T16:06:13.998Z,17.33
2023-05-13T16:11:15.417Z,17.08
2023-05-13T16:16:25.037Z,16.91
2023-05-13T16:21:19.015Z,16.86
2023-05-13T16:26:20.477Z,17.1
2023-05-13T16:31:22.468Z,17.71
2023-05-13T16:36:24.199Z,17.95
2023-05-13T16:41:25.692Z,17.73
2023-05-13T16:46:26.957Z,17.64
2023-05-13T16:51:28.915Z,17.56
2023-05-13T16:56:30.940Z,17.49
2023-05-13T17:01:32.532Z,17.37
2023-05-13T17:06:34.228Z,17.29
2023-05-13T17:11:35.715Z,17.18
2023-05-13T17:16:37.263Z,17.03
2023-05-13T17:21:38.453Z,16.83
2023-05-13T17:26:39.634Z,16.77
2023-05-13T17:31:40.935Z,16.67
2023-05-13T17:36:43.074Z,16.46
2023-05-13T17:41:45.068Z,16.33
2023-05-13T17:46:46.808Z,16.09
2023-05-13T17:51:48.795Z,15.95
2023-05-13T17:56:50.227Z,15.81
2023-05-13T18:01:51.940Z,15.66
2023-05-13T18:06:54.128Z,15.49
2023-05-13T18:11:55.372Z,15.37
2023-05-13T18:16:56.700Z,15.27
2023-05-13T18:21:58.215Z,15.14
2023-05-13T18:26:59.413Z,15
2023-05-13T18:32:01.521Z,14.85
2023-05-13T18:37:02.730Z,14.71
2023-05-13T18:42:04.410Z,14.56
2023-05-13T18:47:06.198Z,14.44
2023-05-13T18:52:08.305Z,14.28
2023-05-13T18:57:10.236Z,14.15
2023-05-13T19:02:12.183Z,14.04
2023-05-13T19:07:13.803Z,13.93
2023-05-13T19:12:15.684Z,13.81
2023-05-13T19:17:17.882Z,13.72
2023-05-13T19:22:19.471Z,13.62
2023-05-13T19:27:20.810Z,13.54
2023-05-13T19:32:22.981Z,13.46
2023-05-13T19:37:24.049Z,13.38
2023-05-13T19:42:25.341Z,13.3
2023-05-13T19:47:26.775Z,13.25
2023-05-13T19:52:28.009Z,13.14
2023-05-13T19:57:30.088Z,13.05
2023-05-13T20:02:31.372Z,12.99
2023-05-13T20:07:32.769Z,12.94
2023-05-13T20:12:34.827Z,12.92
2023-05-13T20:17:36.113Z,12.88
2023-05-13T20:22:38.078Z,12.85
2023-05-13T20:27:39.580Z,12.83
2023-05-13T20:32:40.958Z,12.81
2023-05-13T20:37:42.418Z,12.8
2023-05-13T20:42:43.905Z,12.73
2023-05-13T20:47:45.394Z,12.7
2023-05-13T20:52:47.130Z,12.65
2023-05-13T20:57:48.566Z,12.59
2023-05-13T21:02:50.167Z,12.53
2023-05-13T21:07:52.075Z,12.48
2023-05-13T21:12:54.068Z,12.44
2023-05-13T21:17:55.369Z,12.41
2023-05-13T21:22:57.408Z,12.36
2023-05-13T21:27:59.080Z,12.27
2023-05-13T21:33:00.317Z,12.21
2023-05-13T21:38:11.275Z,12.07
2023-05-13T21:43:03.681Z,12.02
2023-05-13T21:48:05.471Z,11.9
2023-05-13T21:53:06.831Z,11.8
2023-05-13T21:58:08.469Z,11.69
2023-05-13T22:03:10.654Z,11.59
2023-05-13T22:08:12.065Z,11.52
2023-05-13T22:13:13.641Z,11.4
2023-05-13T22:18:15.649Z,11.35
2023-05-13T22:43:24.163Z,11.04
2023-05-13T22:48:25.962Z,10.95
2023-05-13T22:53:27.309Z,10.86
2023-05-13T22:58:28.687Z,10.81
2023-05-13T23:08:32.398Z,10.71
2023-05-13T23:13:34.987Z,10.71
2023-05-13T23:48:46.259Z,10.82
2023-05-13T23:53:47.848Z,10.81
2023-05-13T23:58:49.688Z,10.82
